デンパサール の空港の天気 - METARとTAF

デンパサール国際空港 ( WADD / DPS ) - インドネシア バリ島デンパサール
飛行場実況気象(Metar)
観測時間09/26 20:30 WITA (09/26 12:30 UTC)
風向・風速東 6m/s
視程10km以上
天気現象
少しの雲 雲底高度 520m
気温27℃
湿度89%
気圧1011hPa
METARWADD 261230Z 09012KT 9999 FEW017 27/25 Q1011 NOSIG
過去の天気等 Google飛行場航空写真 Wunderground天気予報

過去48時間のMETAR

飛行場予報(TAF)
発表時間: 9/26 19:00 WITA (9/26 11:00 UTC)
予報対象時間: 26日20時 WITA ~ 27日20時 WITA
風向・風速東 6m/s
視程10km以上
全天の4割程度の雲 雲底高度 460m
27日2時 WITA ~ 27日6時 WITA に一時的に
視程5,000m
天気現象
全天の8割程度の雲 雲底高度 460m
TAF WADD 261100Z 2612/2712 10012KT 9999 SCT015
TEMPO 2618/2622 5000 RA BKN015